sensor_id;sensor_type;location;lat;lon;timestamp;P1;durP1;ratioP1;P2;durP2;ratioP2
11490;SDS011;5802;52.832;4.758;2024-03-23T00:54:53;0.60;;;0.60;;
11490;SDS011;5802;52.832;4.758;2024-03-23T00:57:18;0.85;;;0.60;;
11490;SDS011;5802;52.832;4.758;2024-03-23T00:59:45;1.27;;;0.73;;
11490;SDS011;5802;52.832;4.758;2024-03-23T01:02:11;1.40;;;0.77;;
11490;SDS011;5802;52.832;4.758;2024-03-23T01:04:38;0.68;;;0.50;;
11490;SDS011;5802;52.832;4.758;2024-03-23T01:07:04;1.17;;;0.65;;
11490;SDS011;5802;52.832;4.758;2024-03-23T01:09:31;1.25;;;0.70;;
11490;SDS011;5802;52.832;4.758;2024-03-23T01:11:58;1.25;;;0.63;;
11490;SDS011;5802;52.832;4.758;2024-03-23T01:14:25;1.00;;;0.55;;
11490;SDS011;5802;52.832;4.758;2024-03-23T01:16:51;0.98;;;0.50;;
11490;SDS011;5802;52.832;4.758;2024-03-23T01:19:18;2.83;;;0.77;;
11490;SDS011;5802;52.832;4.758;2024-03-23T01:21:43;1.33;;;0.63;;
11490;SDS011;5802;52.832;4.758;2024-03-23T01:24:10;1.25;;;0.55;;
11490;SDS011;5802;52.832;4.758;2024-03-23T01:26:36;1.23;;;0.80;;
11490;SDS011;5802;52.832;4.758;2024-03-23T01:29:04;0.85;;;0.45;;
11490;SDS011;5802;52.832;4.758;2024-03-23T01:31:30;1.05;;;0.60;;
11490;SDS011;5802;52.832;4.758;2024-03-23T01:33:57;1.58;;;0.70;;
11490;SDS011;5802;52.832;4.758;2024-03-23T01:36:23;1.27;;;0.80;;
11490;SDS011;5802;52.832;4.758;2024-03-23T01:38:50;1.90;;;0.65;;
11490;SDS011;5802;52.832;4.758;2024-03-23T01:41:17;0.63;;;0.55;;
11490;SDS011;5802;52.832;4.758;2024-03-23T01:43:44;0.88;;;0.40;;
11490;SDS011;5802;52.832;4.758;2024-03-23T01:46:11;0.68;;;0.60;;
11490;SDS011;5802;52.832;4.758;2024-03-23T01:48:38;0.95;;;0.60;;
11490;SDS011;5802;52.832;4.758;2024-03-23T01:51:04;1.48;;;0.80;;
11490;SDS011;5802;52.832;4.758;2024-03-23T01:53:31;1.48;;;0.65;;
11490;SDS011;5802;52.832;4.758;2024-03-23T01:55:57;1.77;;;0.80;;
11490;SDS011;5802;52.832;4.758;2024-03-23T01:58:24;1.65;;;0.63;;
11490;SDS011;5802;52.832;4.758;2024-03-23T02:00:50;0.60;;;0.43;;
11490;SDS011;5802;52.832;4.758;2024-03-23T02:03:25;1.52;;;0.70;;
11490;SDS011;5802;52.832;4.758;2024-03-23T02:05:51;1.05;;;0.73;;
11490;SDS011;5802;52.832;4.758;2024-03-23T02:08:20;1.38;;;0.52;;
11490;SDS011;5802;52.832;4.758;2024-03-23T02:10:47;1.63;;;0.80;;
11490;SDS011;5802;52.832;4.758;2024-03-23T02:13:14;2.58;;;1.10;;
11490;SDS011;5802;52.832;4.758;2024-03-23T02:15:40;1.77;;;0.60;;
11490;SDS011;5802;52.832;4.758;2024-03-23T02:18:07;1.33;;;0.70;;
11490;SDS011;5802;52.832;4.758;2024-03-23T02:20:35;0.85;;;0.55;;
11490;SDS011;5802;52.832;4.758;2024-03-23T02:23:03;0.85;;;0.52;;
11490;SDS011;5802;52.832;4.758;2024-03-23T02:25:31;0.52;;;0.35;;
11490;SDS011;5802;52.832;4.758;2024-03-23T02:27:58;0.80;;;0.50;;
11490;SDS011;5802;52.832;4.758;2024-03-23T02:30:24;0.43;;;0.40;;
11490;SDS011;5802;52.832;4.758;2024-03-23T02:32:51;0.93;;;0.47;;
11490;SDS011;5802;52.832;4.758;2024-03-23T02:35:19;1.42;;;0.70;;
11490;SDS011;5802;52.832;4.758;2024-03-23T02:37:46;0.85;;;0.60;;
11490;SDS011;5802;52.832;4.758;2024-03-23T02:40:14;1.20;;;0.65;;
11490;SDS011;5802;52.832;4.758;2024-03-23T02:42:41;1.30;;;0.68;;
11490;SDS011;5802;52.832;4.758;2024-03-23T02:45:07;0.90;;;0.60;;
11490;SDS011;5802;52.832;4.758;2024-03-23T02:47:34;1.40;;;0.50;;
11490;SDS011;5802;52.832;4.758;2024-03-23T02:50:00;0.77;;;0.63;;
11490;SDS011;5802;52.832;4.758;2024-03-23T02:52:27;0.93;;;0.40;;
11490;SDS011;5802;52.832;4.758;2024-03-23T02:54:53;1.10;;;0.70;;
11490;SDS011;5802;52.832;4.758;2024-03-23T02:57:21;2.50;;;0.73;;
11490;SDS011;5802;52.832;4.758;2024-03-23T02:59:48;0.65;;;0.50;;
11490;SDS011;5802;52.832;4.758;2024-03-23T03:02:15;1.17;;;0.50;;
11490;SDS011;5802;52.832;4.758;2024-03-23T03:04:42;0.60;;;0.50;;
11490;SDS011;5802;52.832;4.758;2024-03-23T03:07:08;0.95;;;0.50;;
11490;SDS011;5802;52.832;4.758;2024-03-23T03:09:35;0.73;;;0.47;;
11490;SDS011;5802;52.832;4.758;2024-03-23T03:12:01;1.23;;;0.70;;
11490;SDS011;5802;52.832;4.758;2024-03-23T03:14:29;1.08;;;0.50;;
11490;SDS011;5802;52.832;4.758;2024-03-23T03:16:55;0.98;;;0.60;;
11490;SDS011;5802;52.832;4.758;2024-03-23T03:19:22;0.95;;;0.57;;
11490;SDS011;5802;52.832;4.758;2024-03-23T03:21:48;1.05;;;0.57;;
11490;SDS011;5802;52.832;4.758;2024-03-23T03:24:15;0.93;;;0.50;;
11490;SDS011;5802;52.832;4.758;2024-03-23T03:26:41;0.75;;;0.60;;
11490;SDS011;5802;52.832;4.758;2024-03-23T03:29:08;1.25;;;0.55;;
11490;SDS011;5802;52.832;4.758;2024-03-23T03:31:35;0.82;;;0.47;;
11490;SDS011;5802;52.832;4.758;2024-03-23T03:34:02;0.43;;;0.40;;
11490;SDS011;5802;52.832;4.758;2024-03-23T03:36:27;0.70;;;0.50;;
11490;SDS011;5802;52.832;4.758;2024-03-23T03:38:54;0.75;;;0.45;;
11490;SDS011;5802;52.832;4.758;2024-03-23T03:41:20;0.65;;;0.40;;
11490;SDS011;5802;52.832;4.758;2024-03-23T03:43:47;1.67;;;0.50;;
11490;SDS011;5802;52.832;4.758;2024-03-23T03:46:13;1.00;;;0.60;;
11490;SDS011;5802;52.832;4.758;2024-03-23T03:48:41;1.05;;;0.55;;
11490;SDS011;5802;52.832;4.758;2024-03-23T03:51:07;1.08;;;0.70;;
11490;SDS011;5802;52.832;4.758;2024-03-23T03:53:34;0.68;;;0.50;;
11490;SDS011;5802;52.832;4.758;2024-03-23T03:56:00;1.40;;;0.70;;
11490;SDS011;5802;52.832;4.758;2024-03-23T03:58:27;1.13;;;0.68;;
11490;SDS011;5802;52.832;4.758;2024-03-23T04:00:53;0.75;;;0.40;;
11490;SDS011;5802;52.832;4.758;2024-03-23T04:03:20;0.90;;;0.47;;
11490;SDS011;5802;52.832;4.758;2024-03-23T04:05:51;0.30;;;0.30;;
11490;SDS011;5802;52.832;4.758;2024-03-23T04:08:18;2.47;;;0.70;;
11490;SDS011;5802;52.832;4.758;2024-03-23T04:10:44;0.52;;;0.40;;
11490;SDS011;5802;52.832;4.758;2024-03-23T04:13:11;0.60;;;0.50;;
11490;SDS011;5802;52.832;4.758;2024-03-23T04:15:38;0.90;;;0.63;;
11490;SDS011;5802;52.832;4.758;2024-03-23T04:18:04;0.73;;;0.60;;
11490;SDS011;5802;52.832;4.758;2024-03-23T04:20:31;0.52;;;0.40;;
11490;SDS011;5802;52.832;4.758;2024-03-23T04:22:59;1.20;;;0.60;;
11490;SDS011;5802;52.832;4.758;2024-03-23T04:25:25;0.57;;;0.47;;
11490;SDS011;5802;52.832;4.758;2024-03-23T04:27:52;1.23;;;0.45;;
11490;SDS011;5802;52.832;4.758;2024-03-23T04:30:18;1.05;;;0.68;;
11490;SDS011;5802;52.832;4.758;2024-03-23T04:32:46;1.38;;;0.63;;
11490;SDS011;5802;52.832;4.758;2024-03-23T04:35:12;0.82;;;0.52;;
11490;SDS011;5802;52.832;4.758;2024-03-23T04:37:39;0.98;;;0.60;;
11490;SDS011;5802;52.832;4.758;2024-03-23T04:40:08;0.57;;;0.40;;
11490;SDS011;5802;52.832;4.758;2024-03-23T04:42:38;1.00;;;0.60;;
11490;SDS011;5802;52.832;4.758;2024-03-23T04:45:05;1.02;;;0.50;;
11490;SDS011;5802;52.832;4.758;2024-03-23T04:47:33;1.98;;;0.73;;
11490;SDS011;5802;52.832;4.758;2024-03-23T04:50:01;1.10;;;0.60;;
11490;SDS011;5802;52.832;4.758;2024-03-23T04:52:28;1.85;;;0.73;;
11490;SDS011;5802;52.832;4.758;2024-03-23T04:54:55;0.68;;;0.50;;
11490;SDS011;5802;52.832;4.758;2024-03-23T04:57:24;0.50;;;0.40;;
11490;SDS011;5802;52.832;4.758;2024-03-23T04:59:50;1.23;;;0.63;;
11490;SDS011;5802;52.832;4.758;2024-03-23T05:02:16;1.00;;;0.50;;
11490;SDS011;5802;52.832;4.758;2024-03-23T05:04:42;0.60;;;0.50;;
11490;SDS011;5802;52.832;4.758;2024-03-23T05:07:09;0.70;;;0.55;;
11490;SDS011;5802;52.832;4.758;2024-03-23T05:09:36;1.10;;;0.50;;
11490;SDS011;5802;52.832;4.758;2024-03-23T05:12:03;0.88;;;0.50;;
11490;SDS011;5802;52.832;4.758;2024-03-23T05:14:30;1.08;;;0.70;;
11490;SDS011;5802;52.832;4.758;2024-03-23T05:16:57;0.50;;;0.40;;
11490;SDS011;5802;52.832;4.758;2024-03-23T05:19:23;1.35;;;0.38;;
11490;SDS011;5802;52.832;4.758;2024-03-23T05:21:50;0.98;;;0.43;;
11490;SDS011;5802;52.832;4.758;2024-03-23T05:24:18;0.82;;;0.60;;
11490;SDS011;5802;52.832;4.758;2024-03-23T05:26:45;0.82;;;0.68;;
11490;SDS011;5802;52.832;4.758;2024-03-23T05:29:10;1.08;;;0.68;;
11490;SDS011;5802;52.832;4.758;2024-03-23T05:31:40;1.17;;;0.65;;
11490;SDS011;5802;52.832;4.758;2024-03-23T05:34:06;1.25;;;0.60;;
11490;SDS011;5802;52.832;4.758;2024-03-23T05:36:34;1.25;;;0.40;;
11490;SDS011;5802;52.832;4.758;2024-03-23T05:39:00;2.00;;;0.60;;
11490;SDS011;5802;52.832;4.758;2024-03-23T05:41:27;0.73;;;0.57;;
11490;SDS011;5802;52.832;4.758;2024-03-23T05:43:52;1.20;;;0.52;;
11490;SDS011;5802;52.832;4.758;2024-03-23T05:46:19;0.80;;;0.50;;
11490;SDS011;5802;52.832;4.758;2024-03-23T05:48:47;1.30;;;0.50;;
11490;SDS011;5802;52.832;4.758;2024-03-23T05:51:14;1.38;;;0.60;;
11490;SDS011;5802;52.832;4.758;2024-03-23T05:53:41;1.63;;;0.50;;
11490;SDS011;5802;52.832;4.758;2024-03-23T05:56:08;1.33;;;0.60;;
11490;SDS011;5802;52.832;4.758;2024-03-23T05:58:34;1.10;;;0.63;;
11490;SDS011;5802;52.832;4.758;2024-03-23T06:01:01;0.80;;;0.47;;
11490;SDS011;5802;52.832;4.758;2024-03-23T06:03:27;1.50;;;0.70;;
11490;SDS011;5802;52.832;4.758;2024-03-23T06:05:56;1.05;;;0.73;;
11490;SDS011;5802;52.832;4.758;2024-03-23T06:08:22;1.08;;;0.73;;
11490;SDS011;5802;52.832;4.758;2024-03-23T06:10:50;1.13;;;0.50;;
11490;SDS011;5802;52.832;4.758;2024-03-23T06:13:16;1.27;;;0.50;;
11490;SDS011;5802;52.832;4.758;2024-03-23T06:15:43;1.20;;;0.68;;
11490;SDS011;5802;52.832;4.758;2024-03-23T06:18:10;0.95;;;0.60;;
11490;SDS011;5802;52.832;4.758;2024-03-23T06:20:37;1.52;;;0.65;;
11490;SDS011;5802;52.832;4.758;2024-03-23T06:23:05;0.82;;;0.60;;
11490;SDS011;5802;52.832;4.758;2024-03-23T06:25:31;1.15;;;0.57;;
11490;SDS011;5802;52.832;4.758;2024-03-23T06:27:57;1.42;;;0.73;;
11490;SDS011;5802;52.832;4.758;2024-03-23T06:30:26;2.15;;;0.57;;
11490;SDS011;5802;52.832;4.758;2024-03-23T06:32:52;1.20;;;0.60;;
11490;SDS011;5802;52.832;4.758;2024-03-23T06:35:19;1.10;;;0.70;;
11490;SDS011;5802;52.832;4.758;2024-03-23T06:37:45;1.00;;;0.57;;
11490;SDS011;5802;52.832;4.758;2024-03-23T06:40:13;0.60;;;0.55;;
11490;SDS011;5802;52.832;4.758;2024-03-23T06:42:40;0.95;;;0.60;;
11490;SDS011;5802;52.832;4.758;2024-03-23T06:45:07;1.55;;;0.68;;
11490;SDS011;5802;52.832;4.758;2024-03-23T06:47:33;0.98;;;0.70;;
11490;SDS011;5802;52.832;4.758;2024-03-23T06:50:00;0.70;;;0.50;;
11490;SDS011;5802;52.832;4.758;2024-03-23T06:52:27;0.90;;;0.68;;
11490;SDS011;5802;52.832;4.758;2024-03-23T06:54:54;0.50;;;0.40;;
11490;SDS011;5802;52.832;4.758;2024-03-23T06:57:22;2.33;;;0.70;;
11490;SDS011;5802;52.832;4.758;2024-03-23T06:59:49;1.58;;;0.55;;
11490;SDS011;5802;52.832;4.758;2024-03-23T07:02:15;0.95;;;0.60;;
11490;SDS011;5802;52.832;4.758;2024-03-23T07:04:42;1.20;;;0.70;;
11490;SDS011;5802;52.832;4.758;2024-03-23T07:07:08;1.30;;;0.65;;
11490;SDS011;5802;52.832;4.758;2024-03-23T07:09:35;1.10;;;0.88;;
11490;SDS011;5802;52.832;4.758;2024-03-23T07:12:02;1.48;;;0.80;;
11490;SDS011;5802;52.832;4.758;2024-03-23T07:14:31;1.27;;;0.73;;
11490;SDS011;5802;52.832;4.758;2024-03-23T07:16:57;0.60;;;0.60;;
11490;SDS011;5802;52.832;4.758;2024-03-23T07:19:24;1.05;;;0.60;;
11490;SDS011;5802;52.832;4.758;2024-03-23T07:21:49;0.80;;;0.60;;
11490;SDS011;5802;52.832;4.758;2024-03-23T07:24:16;1.70;;;0.60;;
11490;SDS011;5802;52.832;4.758;2024-03-23T07:26:43;1.20;;;0.60;;
11490;SDS011;5802;52.832;4.758;2024-03-23T07:29:09;1.67;;;0.50;;
11490;SDS011;5802;52.832;4.758;2024-03-23T07:31:37;1.25;;;0.47;;
11490;SDS011;5802;52.832;4.758;2024-03-23T07:34:03;1.25;;;0.50;;
11490;SDS011;5802;52.832;4.758;2024-03-23T07:36:30;1.65;;;0.60;;
11490;SDS011;5802;52.832;4.758;2024-03-23T07:38:56;1.15;;;0.70;;
11490;SDS011;5802;52.832;4.758;2024-03-23T07:41:23;0.77;;;0.50;;
11490;SDS011;5802;52.832;4.758;2024-03-23T07:43:49;1.08;;;0.55;;
11490;SDS011;5802;52.832;4.758;2024-03-23T07:46:16;0.90;;;0.52;;
11490;SDS011;5802;52.832;4.758;2024-03-23T07:48:45;0.77;;;0.50;;
11490;SDS011;5802;52.832;4.758;2024-03-23T07:51:15;1.42;;;0.65;;
11490;SDS011;5802;52.832;4.758;2024-03-23T07:53:42;4.20;;;0.77;;
11490;SDS011;5802;52.832;4.758;2024-03-23T07:56:11;1.27;;;0.77;;
11490;SDS011;5802;52.832;4.758;2024-03-23T07:58:37;2.05;;;1.00;;
11490;SDS011;5802;52.832;4.758;2024-03-23T08:01:05;2.00;;;0.80;;
11490;SDS011;5802;52.832;4.758;2024-03-23T08:03:33;1.55;;;0.85;;
11490;SDS011;5802;52.832;4.758;2024-03-23T08:06:07;4.10;;;1.27;;
11490;SDS011;5802;52.832;4.758;2024-03-23T08:08:34;3.22;;;1.20;;
11490;SDS011;5802;52.832;4.758;2024-03-23T08:11:00;2.08;;;0.90;;
11490;SDS011;5802;52.832;4.758;2024-03-23T08:13:26;1.63;;;0.85;;
11490;SDS011;5802;52.832;4.758;2024-03-23T08:15:56;2.42;;;0.98;;
11490;SDS011;5802;52.832;4.758;2024-03-23T08:18:22;3.47;;;1.02;;
11490;SDS011;5802;52.832;4.758;2024-03-23T08:20:55;3.00;;;0.80;;
11490;SDS011;5802;52.832;4.758;2024-03-23T08:23:22;3.13;;;1.10;;
11490;SDS011;5802;52.832;4.758;2024-03-23T08:25:50;2.03;;;1.00;;
11490;SDS011;5802;52.832;4.758;2024-03-23T08:28:15;2.50;;;1.10;;
11490;SDS011;5802;52.832;4.758;2024-03-23T08:30:42;2.53;;;1.33;;
11490;SDS011;5802;52.832;4.758;2024-03-23T08:33:08;1.55;;;0.85;;
11490;SDS011;5802;52.832;4.758;2024-03-23T08:35:35;2.08;;;1.20;;
11490;SDS011;5802;52.832;4.758;2024-03-23T08:38:01;2.72;;;0.95;;
11490;SDS011;5802;52.832;4.758;2024-03-23T08:40:29;3.50;;;1.08;;
11490;SDS011;5802;52.832;4.758;2024-03-23T08:42:55;1.70;;;0.90;;
11490;SDS011;5802;52.832;4.758;2024-03-23T08:45:23;1.92;;;1.10;;
11490;SDS011;5802;52.832;4.758;2024-03-23T08:47:50;3.63;;;1.23;;
11490;SDS011;5802;52.832;4.758;2024-03-23T08:50:17;2.83;;;1.23;;
11490;SDS011;5802;52.832;4.758;2024-03-23T08:52:44;3.08;;;1.35;;
11490;SDS011;5802;52.832;4.758;2024-03-23T08:55:10;2.08;;;1.08;;
11490;SDS011;5802;52.832;4.758;2024-03-23T08:57:38;3.35;;;1.17;;
11490;SDS011;5802;52.832;4.758;2024-03-23T09:00:05;2.42;;;1.10;;
11490;SDS011;5802;52.832;4.758;2024-03-23T09:02:33;2.70;;;1.20;;
11490;SDS011;5802;52.832;4.758;2024-03-23T09:05:00;2.45;;;1.00;;
11490;SDS011;5802;52.832;4.758;2024-03-23T09:07:29;3.60;;;1.35;;
11490;SDS011;5802;52.832;4.758;2024-03-23T09:09:57;1.42;;;0.82;;
11490;SDS011;5802;52.832;4.758;2024-03-23T09:12:23;2.05;;;1.00;;
11490;SDS011;5802;52.832;4.758;2024-03-23T09:14:51;2.33;;;1.00;;
11490;SDS011;5802;52.832;4.758;2024-03-23T09:17:18;2.05;;;1.08;;
11490;SDS011;5802;52.832;4.758;2024-03-23T09:19:45;2.42;;;0.80;;
11490;SDS011;5802;52.832;4.758;2024-03-23T09:22:11;2.78;;;1.02;;
11490;SDS011;5802;52.832;4.758;2024-03-23T09:24:38;2.10;;;1.00;;
11490;SDS011;5802;52.832;4.758;2024-03-23T09:27:04;1.38;;;0.98;;
11490;SDS011;5802;52.832;4.758;2024-03-23T09:29:31;1.98;;;1.02;;
11490;SDS011;5802;52.832;4.758;2024-03-23T09:31:58;2.53;;;1.10;;
11490;SDS011;5802;52.832;4.758;2024-03-23T09:34:25;1.45;;;1.02;;
11490;SDS011;5802;52.832;4.758;2024-03-23T09:36:51;3.15;;;1.13;;
11490;SDS011;5802;52.832;4.758;2024-03-23T09:39:18;3.13;;;1.17;;
11490;SDS011;5802;52.832;4.758;2024-03-23T09:41:44;2.85;;;1.10;;
11490;SDS011;5802;52.832;4.758;2024-03-23T09:44:11;2.75;;;1.10;;
11490;SDS011;5802;52.832;4.758;2024-03-23T09:46:37;1.48;;;1.00;;
11490;SDS011;5802;52.832;4.758;2024-03-23T09:49:06;2.38;;;1.10;;
11490;SDS011;5802;52.832;4.758;2024-03-23T09:51:35;2.42;;;1.00;;
11490;SDS011;5802;52.832;4.758;2024-03-23T09:54:02;1.55;;;0.77;;
11490;SDS011;5802;52.832;4.758;2024-03-23T09:56:28;1.55;;;0.77;;
11490;SDS011;5802;52.832;4.758;2024-03-23T09:59:00;1.85;;;0.82;;
11490;SDS011;5802;52.832;4.758;2024-03-23T10:01:26;2.35;;;0.85;;
11490;SDS011;5802;52.832;4.758;2024-03-23T10:03:53;2.00;;;1.10;;
11490;SDS011;5802;52.832;4.758;2024-03-23T10:06:22;8.82;;;1.30;;
11490;SDS011;5802;52.832;4.758;2024-03-23T10:08:51;4.63;;;1.33;;
11490;SDS011;5802;52.832;4.758;2024-03-23T10:11:18;5.30;;;1.40;;
11490;SDS011;5802;52.832;4.758;2024-03-23T10:13:46;4.90;;;1.67;;
11490;SDS011;5802;52.832;4.758;2024-03-23T10:16:12;6.35;;;1.75;;
11490;SDS011;5802;52.832;4.758;2024-03-23T10:18:48;7.53;;;1.88;;
11490;SDS011;5802;52.832;4.758;2024-03-23T10:21:15;8.88;;;2.03;;
11490;SDS011;5802;52.832;4.758;2024-03-23T10:23:44;5.25;;;1.98;;
11490;SDS011;5802;52.832;4.758;2024-03-23T10:26:14;4.82;;;1.75;;
11490;SDS011;5802;52.832;4.758;2024-03-23T10:31:27;6.57;;;1.95;;
11490;SDS011;5802;52.832;4.758;2024-03-23T10:33:54;7.78;;;2.30;;
11490;SDS011;5802;52.832;4.758;2024-03-23T10:36:20;7.43;;;2.42;;
11490;SDS011;5802;52.832;4.758;2024-03-23T10:38:49;8.60;;;2.17;;
11490;SDS011;5802;52.832;4.758;2024-03-23T10:41:16;8.25;;;2.17;;
11490;SDS011;5802;52.832;4.758;2024-03-23T10:43:44;4.90;;;1.92;;
11490;SDS011;5802;52.832;4.758;2024-03-23T10:46:11;6.93;;;1.98;;
11490;SDS011;5802;52.832;4.758;2024-03-23T10:48:38;4.00;;;1.90;;
11490;SDS011;5802;52.832;4.758;2024-03-23T10:51:04;7.47;;;1.98;;
11490;SDS011;5802;52.832;4.758;2024-03-23T10:53:33;4.85;;;2.00;;
11490;SDS011;5802;52.832;4.758;2024-03-23T10:56:01;4.75;;;2.13;;
11490;SDS011;5802;52.832;4.758;2024-03-23T10:58:29;7.28;;;2.53;;
11490;SDS011;5802;52.832;4.758;2024-03-23T11:00:56;6.88;;;2.10;;
11490;SDS011;5802;52.832;4.758;2024-03-23T11:03:30;5.50;;;2.10;;
11490;SDS011;5802;52.832;4.758;2024-03-23T11:06:01;4.65;;;1.98;;
11490;SDS011;5802;52.832;4.758;2024-03-23T11:08:29;7.03;;;2.38;;
11490;SDS011;5802;52.832;4.758;2024-03-23T11:13:52;4.43;;;1.80;;
11490;SDS011;5802;52.832;4.758;2024-03-23T11:16:21;5.25;;;1.80;;
11490;SDS011;5802;52.832;4.758;2024-03-23T11:18:48;6.88;;;1.92;;
11490;SDS011;5802;52.832;4.758;2024-03-23T11:24:18;4.50;;;1.73;;
11490;SDS011;5802;52.832;4.758;2024-03-23T11:26:46;3.95;;;1.98;;
11490;SDS011;5802;52.832;4.758;2024-03-23T11:29:13;3.92;;;1.83;;
11490;SDS011;5802;52.832;4.758;2024-03-23T11:31:45;6.22;;;1.77;;
11490;SDS011;5802;52.832;4.758;2024-03-23T11:34:11;5.38;;;1.98;;
11490;SDS011;5802;52.832;4.758;2024-03-23T11:36:38;3.55;;;1.63;;
11490;SDS011;5802;52.832;4.758;2024-03-23T11:39:11;6.50;;;1.85;;
11490;SDS011;5802;52.832;4.758;2024-03-23T11:41:47;6.28;;;2.00;;
11490;SDS011;5802;52.832;4.758;2024-03-23T11:44:18;5.85;;;1.90;;
11490;SDS011;5802;52.832;4.758;2024-03-23T11:46:45;6.75;;;1.55;;
11490;SDS011;5802;52.832;4.758;2024-03-23T11:49:21;5.20;;;1.85;;
11490;SDS011;5802;52.832;4.758;2024-03-23T11:51:49;4.22;;;1.92;;
11490;SDS011;5802;52.832;4.758;2024-03-23T11:54:15;6.30;;;1.58;;
11490;SDS011;5802;52.832;4.758;2024-03-23T11:56:53;4.63;;;1.80;;
11490;SDS011;5802;52.832;4.758;2024-03-23T11:59:31;5.03;;;2.05;;
11490;SDS011;5802;52.832;4.758;2024-03-23T12:01:58;4.57;;;2.00;;
11490;SDS011;5802;52.832;4.758;2024-03-23T12:04:25;3.83;;;1.88;;
11490;SDS011;5802;52.832;4.758;2024-03-23T12:09:37;3.30;;;1.65;;
11490;SDS011;5802;52.832;4.758;2024-03-23T12:12:08;4.50;;;1.90;;
11490;SDS011;5802;52.832;4.758;2024-03-23T12:14:37;3.28;;;1.67;;
11490;SDS011;5802;52.832;4.758;2024-03-23T12:17:08;5.85;;;2.05;;
11490;SDS011;5802;52.832;4.758;2024-03-23T12:19:34;7.68;;;1.85;;
11490;SDS011;5802;52.832;4.758;2024-03-23T12:22:02;3.63;;;1.80;;
11490;SDS011;5802;52.832;4.758;2024-03-23T12:24:29;4.20;;;1.80;;
11490;SDS011;5802;52.832;4.758;2024-03-23T12:26:59;5.10;;;1.83;;
11490;SDS011;5802;52.832;4.758;2024-03-23T12:29:26;4.03;;;1.70;;
11490;SDS011;5802;52.832;4.758;2024-03-23T12:31:55;3.78;;;1.48;;
11490;SDS011;5802;52.832;4.758;2024-03-23T12:34:21;4.55;;;1.80;;
11490;SDS011;5802;52.832;4.758;2024-03-23T12:36:47;4.90;;;1.50;;
11490;SDS011;5802;52.832;4.758;2024-03-23T12:39:13;2.00;;;1.35;;
11490;SDS011;5802;52.832;4.758;2024-03-23T12:41:40;4.45;;;1.67;;
11490;SDS011;5802;52.832;4.758;2024-03-23T12:44:06;3.42;;;1.50;;
11490;SDS011;5802;52.832;4.758;2024-03-23T12:46:34;4.53;;;1.67;;
11490;SDS011;5802;52.832;4.758;2024-03-23T12:49:01;3.97;;;1.67;;
11490;SDS011;5802;52.832;4.758;2024-03-23T12:51:28;2.60;;;1.30;;
11490;SDS011;5802;52.832;4.758;2024-03-23T12:53:54;4.35;;;1.95;;
11490;SDS011;5802;52.832;4.758;2024-03-23T12:56:21;3.20;;;1.60;;
11490;SDS011;5802;52.832;4.758;2024-03-23T12:58:47;3.47;;;1.50;;
11490;SDS011;5802;52.832;4.758;2024-03-23T13:01:16;5.07;;;1.50;;
11490;SDS011;5802;52.832;4.758;2024-03-23T13:03:42;2.75;;;1.23;;
11490;SDS011;5802;52.832;4.758;2024-03-23T13:06:11;6.32;;;1.73;;
11490;SDS011;5802;52.832;4.758;2024-03-23T13:08:36;2.60;;;1.30;;
11490;SDS011;5802;52.832;4.758;2024-03-23T13:11:04;3.08;;;1.40;;
11490;SDS011;5802;52.832;4.758;2024-03-23T13:13:29;2.33;;;1.27;;
11490;SDS011;5802;52.832;4.758;2024-03-23T13:15:58;5.78;;;1.30;;
11490;SDS011;5802;52.832;4.758;2024-03-23T13:18:24;4.78;;;1.50;;
11490;SDS011;5802;52.832;4.758;2024-03-23T13:20:51;5.57;;;1.67;;
11490;SDS011;5802;52.832;4.758;2024-03-23T13:23:18;2.83;;;1.30;;
11490;SDS011;5802;52.832;4.758;2024-03-23T13:25:49;5.35;;;1.38;;
11490;SDS011;5802;52.832;4.758;2024-03-23T13:28:15;2.60;;;1.48;;
11490;SDS011;5802;52.832;4.758;2024-03-23T13:30:49;3.30;;;1.50;;
11490;SDS011;5802;52.832;4.758;2024-03-23T13:33:15;3.42;;;1.20;;
11490;SDS011;5802;52.832;4.758;2024-03-23T13:35:48;4.68;;;1.38;;
11490;SDS011;5802;52.832;4.758;2024-03-23T13:38:14;4.63;;;1.70;;
11490;SDS011;5802;52.832;4.758;2024-03-23T13:40:50;3.03;;;1.20;;
11490;SDS011;5802;52.832;4.758;2024-03-23T13:43:16;3.35;;;1.08;;
11490;SDS011;5802;52.832;4.758;2024-03-23T13:45:43;3.85;;;1.75;;
11490;SDS011;5802;52.832;4.758;2024-03-23T13:48:09;4.40;;;1.60;;
11490;SDS011;5802;52.832;4.758;2024-03-23T13:50:36;5.07;;;2.22;;
11490;SDS011;5802;52.832;4.758;2024-03-23T13:53:02;3.50;;;1.52;;
11490;SDS011;5802;52.832;4.758;2024-03-23T13:55:29;4.20;;;2.00;;
11490;SDS011;5802;52.832;4.758;2024-03-23T13:57:56;3.70;;;2.17;;
11490;SDS011;5802;52.832;4.758;2024-03-23T14:00:23;3.65;;;2.63;;
11490;SDS011;5802;52.832;4.758;2024-03-23T14:02:49;3.13;;;2.35;;
11490;SDS011;5802;52.832;4.758;2024-03-23T14:05:16;2.65;;;2.40;;
11490;SDS011;5802;52.832;4.758;2024-03-23T14:07:42;3.47;;;2.70;;
11490;SDS011;5802;52.832;4.758;2024-03-23T14:10:09;5.70;;;3.05;;
11490;SDS011;5802;52.832;4.758;2024-03-23T14:12:36;3.60;;;3.30;;
11490;SDS011;5802;52.832;4.758;2024-03-23T14:15:06;4.97;;;3.75;;
11490;SDS011;5802;52.832;4.758;2024-03-23T14:17:32;5.38;;;3.80;;
11490;SDS011;5802;52.832;4.758;2024-03-23T14:19:59;4.50;;;3.25;;
11490;SDS011;5802;52.832;4.758;2024-03-23T14:22:26;3.72;;;3.40;;
11490;SDS011;5802;52.832;4.758;2024-03-23T14:24:53;4.72;;;3.72;;
11490;SDS011;5802;52.832;4.758;2024-03-23T14:27:19;4.20;;;3.50;;
11490;SDS011;5802;52.832;4.758;2024-03-23T14:29:46;3.70;;;3.40;;
11490;SDS011;5802;52.832;4.758;2024-03-23T14:32:14;5.68;;;3.78;;
11490;SDS011;5802;52.832;4.758;2024-03-23T14:34:40;4.40;;;3.47;;
11490;SDS011;5802;52.832;4.758;2024-03-23T14:37:06;4.50;;;3.53;;
11490;SDS011;5802;52.832;4.758;2024-03-23T14:39:33;4.28;;;3.78;;
11490;SDS011;5802;52.832;4.758;2024-03-23T14:41:59;4.30;;;3.67;;
11490;SDS011;5802;52.832;4.758;2024-03-23T14:44:26;4.30;;;3.20;;
11490;SDS011;5802;52.832;4.758;2024-03-23T14:46:53;4.05;;;3.35;;
11490;SDS011;5802;52.832;4.758;2024-03-23T14:49:21;3.35;;;3.05;;
11490;SDS011;5802;52.832;4.758;2024-03-23T14:51:47;3.08;;;2.75;;
11490;SDS011;5802;52.832;4.758;2024-03-23T14:54:15;5.55;;;2.85;;
11490;SDS011;5802;52.832;4.758;2024-03-23T14:56:41;3.10;;;2.80;;
11490;SDS011;5802;52.832;4.758;2024-03-23T14:59:08;2.95;;;2.67;;
11490;SDS011;5802;52.832;4.758;2024-03-23T15:01:34;5.05;;;2.78;;
11490;SDS011;5802;52.832;4.758;2024-03-23T15:04:01;3.72;;;2.83;;
11490;SDS011;5802;52.832;4.758;2024-03-23T15:06:30;3.13;;;2.60;;
11490;SDS011;5802;52.832;4.758;2024-03-23T15:08:58;3.45;;;2.60;;
11490;SDS011;5802;52.832;4.758;2024-03-23T15:11:24;5.05;;;2.72;;
11490;SDS011;5802;52.832;4.758;2024-03-23T15:13:51;3.38;;;2.53;;
11490;SDS011;5802;52.832;4.758;2024-03-23T15:16:17;3.05;;;2.65;;
11490;SDS011;5802;52.832;4.758;2024-03-23T15:18:45;3.53;;;2.30;;
11490;SDS011;5802;52.832;4.758;2024-03-23T15:21:11;2.85;;;2.53;;
11490;SDS011;5802;52.832;4.758;2024-03-23T15:23:41;2.80;;;2.25;;
11490;SDS011;5802;52.832;4.758;2024-03-23T15:26:08;4.70;;;2.35;;
11490;SDS011;5802;52.832;4.758;2024-03-23T15:28:35;3.38;;;2.17;;
11490;SDS011;5802;52.832;4.758;2024-03-23T15:31:06;3.05;;;2.30;;
11490;SDS011;5802;52.832;4.758;2024-03-23T15:33:34;4.07;;;2.25;;
11490;SDS011;5802;52.832;4.758;2024-03-23T15:36:01;3.25;;;2.30;;
11490;SDS011;5802;52.832;4.758;2024-03-23T15:38:28;2.42;;;2.20;;
11490;SDS011;5802;52.832;4.758;2024-03-23T15:40:57;2.67;;;1.92;;
11490;SDS011;5802;52.832;4.758;2024-03-23T15:43:24;3.78;;;2.20;;
11490;SDS011;5802;52.832;4.758;2024-03-23T15:45:54;2.47;;;1.80;;
11490;SDS011;5802;52.832;4.758;2024-03-23T15:48:21;3.22;;;2.10;;
11490;SDS011;5802;52.832;4.758;2024-03-23T15:50:51;3.40;;;2.03;;
11490;SDS011;5802;52.832;4.758;2024-03-23T15:53:18;5.22;;;2.03;;
11490;SDS011;5802;52.832;4.758;2024-03-23T15:55:44;2.83;;;1.75;;
11490;SDS011;5802;52.832;4.758;2024-03-23T15:58:13;3.00;;;2.08;;
11490;SDS011;5802;52.832;4.758;2024-03-23T16:00:41;2.40;;;1.80;;
11490;SDS011;5802;52.832;4.758;2024-03-23T16:03:08;6.57;;;1.88;;
11490;SDS011;5802;52.832;4.758;2024-03-23T16:05:34;2.53;;;2.08;;